createdAt,value
2022-09-27T00:01:33.883Z,9.70
2022-09-27T00:04:30.789Z,9.60
2022-09-27T00:07:27.580Z,9.60
2022-09-27T00:10:24.501Z,9.60
2022-09-27T00:13:21.260Z,9.60
2022-09-27T00:16:18.202Z,9.70
2022-09-27T00:19:18.996Z,9.70
2022-09-27T00:22:15.765Z,9.70
2022-09-27T00:25:12.702Z,9.70
2022-09-27T00:28:09.824Z,9.60
2022-09-27T00:31:20.945Z,9.60
2022-09-27T00:34:24.731Z,9.60
2022-09-27T00:37:21.512Z,9.50
2022-09-27T00:40:19.782Z,9.50
2022-09-27T00:43:21.705Z,9.60
2022-09-27T00:46:45.285Z,9.60
2022-09-27T00:49:57.782Z,9.70
2022-09-27T00:53:29.379Z,9.60
2022-09-27T00:56:31.664Z,9.60
2022-09-27T00:59:37.135Z,9.60
2022-09-27T01:02:36.489Z,9.60
2022-09-27T01:05:33.760Z,9.50
2022-09-27T01:08:30.637Z,9.50
2022-09-27T01:12:03.011Z,9.60
2022-09-27T01:15:24.306Z,9.60
2022-09-27T01:18:59.045Z,9.60
2022-09-27T01:22:38.191Z,9.70
2022-09-27T01:26:19.769Z,9.60
2022-09-27T01:30:08.331Z,9.60
2022-09-27T01:33:56.369Z,9.50
2022-09-27T01:37:32.025Z,9.50
2022-09-27T01:40:51.814Z,9.50
2022-09-27T01:44:03.083Z,9.50
2022-09-27T01:47:08.803Z,9.50
2022-09-27T01:50:14.069Z,9.60
2022-09-27T01:53:35.511Z,9.60
2022-09-27T01:56:41.973Z,9.60
2022-09-27T01:59:47.526Z,9.70
2022-09-27T02:03:01.730Z,9.50
2022-09-27T02:06:33.210Z,9.50
2022-09-27T02:09:39.728Z,9.50
2022-09-27T02:13:14.702Z,9.50
2022-09-27T02:16:30.237Z,9.50
2022-09-27T02:19:46.165Z,9.40
2022-09-27T02:22:51.057Z,9.40
2022-09-27T02:26:04.218Z,9.40
2022-09-27T02:29:23.738Z,9.40
2022-09-27T02:32:20.602Z,9.40
2022-09-27T02:35:29.932Z,9.30
2022-09-27T02:38:26.994Z,9.30
2022-09-27T02:41:23.962Z,9.30
2022-09-27T02:44:21.348Z,9.40
2022-09-27T02:47:55.591Z,9.40
2022-09-27T02:51:47.630Z,9.30
2022-09-27T02:54:59.552Z,9.40
2022-09-27T02:58:54.570Z,9.40
2022-09-27T03:02:24.012Z,9.40
2022-09-27T03:05:45.274Z,9.30
2022-09-27T03:08:43.759Z,9.30
2022-09-27T03:11:40.554Z,9.40
2022-09-27T03:14:37.382Z,9.40
2022-09-27T03:17:34.159Z,9.30
2022-09-27T03:20:31.479Z,9.30
2022-09-27T03:23:28.514Z,9.40
2022-09-27T03:26:25.334Z,9.40
2022-09-27T03:29:22.171Z,9.30
2022-09-27T03:32:19.028Z,9.30
2022-09-27T03:35:16.106Z,9.30
2022-09-27T03:38:12.906Z,9.30
2022-09-27T03:41:09.681Z,9.30
2022-09-27T03:44:06.460Z,9.30
2022-09-27T03:47:03.376Z,9.30
2022-09-27T03:50:00.194Z,9.30
2022-09-27T03:52:57.229Z,9.20
2022-09-27T03:55:54.095Z,9.30
2022-09-27T03:58:50.915Z,9.30
2022-09-27T04:01:47.753Z,9.20
2022-09-27T04:04:45.157Z,9.30
2022-09-27T04:07:48.459Z,9.30
2022-09-27T04:10:45.339Z,9.30
2022-09-27T04:13:44.005Z,9.20
2022-09-27T04:16:41.034Z,9.20
2022-09-27T04:19:38.096Z,9.20
2022-09-27T04:22:35.031Z,9.20
2022-09-27T04:25:34.981Z,9.20
2022-09-27T04:28:32.209Z,9.10
2022-09-27T04:31:29.841Z,9.10
2022-09-27T04:34:49.542Z,9.00
2022-09-27T04:37:46.623Z,9.00
2022-09-27T04:40:43.429Z,9.00
2022-09-27T04:43:40.255Z,9.10
2022-09-27T04:46:37.211Z,9.10
2022-09-27T04:49:34.095Z,9.00
2022-09-27T04:52:31.743Z,9.00
2022-09-27T04:55:28.617Z,9.10
2022-09-27T04:58:25.566Z,9.10
2022-09-27T05:01:22.792Z,9.10
2022-09-27T05:04:20.135Z,9.00
2022-09-27T05:07:17.707Z,9.10
2022-09-27T05:10:14.493Z,9.10
2022-09-27T05:13:11.342Z,9.00
2022-09-27T05:16:08.448Z,9.00
2022-09-27T05:19:05.303Z,9.00
2022-09-27T05:22:02.408Z,9.00
2022-09-27T05:24:59.194Z,9.00
2022-09-27T05:27:56.044Z,9.00
2022-09-27T05:30:52.842Z,9.00
2022-09-27T05:33:49.642Z,9.00
2022-09-27T05:36:49.836Z,8.90
2022-09-27T05:39:46.676Z,9.00
2022-09-27T05:42:43.468Z,9.00
2022-09-27T05:45:40.427Z,9.00
2022-09-27T05:48:37.641Z,9.00
2022-09-27T05:51:34.727Z,9.00
2022-09-27T05:54:38.007Z,9.00
2022-09-27T05:57:34.881Z,9.10
2022-09-27T06:00:32.542Z,9.00
2022-09-27T06:03:29.335Z,9.00
2022-09-27T06:06:26.111Z,8.90
2022-09-27T06:09:23.347Z,9.00
2022-09-27T06:12:20.421Z,9.00
2022-09-27T06:15:17.338Z,9.00
2022-09-27T06:18:17.980Z,9.00
2022-09-27T06:21:14.861Z,9.00
2022-09-27T06:24:12.663Z,9.00
2022-09-27T06:27:09.562Z,9.00
2022-09-27T06:30:07.114Z,9.00
2022-09-27T06:33:03.923Z,9.00
2022-09-27T06:36:07.003Z,9.00
2022-09-27T06:39:04.075Z,9.00
2022-09-27T06:42:00.966Z,8.90
2022-09-27T06:44:57.814Z,9.00
2022-09-27T06:47:55.277Z,8.90
2022-09-27T06:50:54.460Z,8.90
2022-09-27T06:53:51.265Z,8.90
2022-09-27T06:56:48.269Z,8.90
2022-09-27T07:00:03.357Z,8.80
2022-09-27T07:03:02.999Z,8.80
2022-09-27T07:06:06.326Z,8.70
2022-09-27T07:09:03.453Z,8.80
2022-09-27T07:12:00.340Z,8.80
2022-09-27T07:14:57.144Z,8.80
2022-09-27T07:17:58.351Z,8.80
2022-09-27T07:20:59.905Z,8.70
2022-09-27T07:23:57.162Z,8.70
2022-09-27T07:26:53.958Z,8.70
2022-09-27T07:29:50.895Z,8.60
2022-09-27T07:32:48.125Z,8.70
2022-09-27T07:35:44.945Z,8.70
2022-09-27T07:38:42.233Z,8.70
2022-09-27T07:41:40.411Z,8.70
2022-09-27T07:44:37.615Z,8.70
2022-09-27T07:47:34.910Z,8.60
2022-09-27T07:50:31.849Z,8.60
2022-09-27T07:53:28.705Z,8.60
2022-09-27T07:56:25.512Z,8.60
2022-09-27T07:59:22.450Z,8.50
2022-09-27T08:02:19.343Z,8.50
2022-09-27T08:05:16.244Z,8.50
2022-09-27T08:08:14.228Z,8.60
2022-09-27T08:11:17.108Z,8.50
2022-09-27T08:14:14.792Z,8.60
2022-09-27T08:17:11.795Z,8.70
2022-09-27T08:20:09.156Z,8.60
2022-09-27T08:23:06.426Z,8.60
2022-09-27T08:26:03.639Z,8.60
2022-09-27T08:29:00.408Z,8.60
2022-09-27T08:31:57.230Z,8.70
2022-09-27T08:34:54.035Z,8.60
2022-09-27T08:37:59.804Z,8.60
2022-09-27T08:41:06.577Z,8.60
2022-09-27T08:44:27.906Z,8.60
2022-09-27T08:47:44.326Z,8.60
2022-09-27T08:50:46.672Z,8.70
2022-09-27T08:53:52.877Z,8.70
2022-09-27T08:56:49.980Z,8.70
2022-09-27T09:00:03.836Z,8.80
2022-09-27T09:03:02.351Z,8.70
2022-09-27T09:06:23.673Z,8.80
2022-09-27T09:10:02.960Z,8.80
2022-09-27T09:13:36.047Z,8.80
2022-09-27T09:17:29.730Z,8.70
2022-09-27T09:20:47.873Z,8.80
2022-09-27T09:23:56.030Z,8.70
2022-09-27T09:27:04.009Z,8.70
2022-09-27T09:30:22.244Z,8.80
2022-09-27T09:33:32.358Z,8.90
2022-09-27T09:36:56.956Z,8.90
2022-09-27T09:40:09.192Z,8.90
2022-09-27T09:43:42.488Z,8.90
2022-09-27T09:46:45.485Z,8.90
2022-09-27T09:49:51.491Z,9.00
2022-09-27T09:52:57.598Z,9.10
2022-09-27T09:56:03.705Z,9.20
2022-09-27T09:59:19.473Z,9.20
2022-09-27T10:02:38.198Z,9.30
2022-09-27T10:05:35.547Z,9.30
2022-09-27T10:08:33.098Z,9.30
2022-09-27T10:11:40.804Z,9.20
2022-09-27T10:14:37.871Z,9.20
2022-09-27T10:17:44.833Z,9.30
2022-09-27T10:20:55.958Z,9.20
2022-09-27T10:24:18.167Z,9.30
2022-09-27T10:27:15.594Z,9.30
2022-09-27T10:30:29.562Z,9.20
2022-09-27T10:33:28.087Z,9.10
2022-09-27T10:36:32.524Z,9.30
2022-09-27T10:39:29.498Z,9.40
2022-09-27T10:42:38.557Z,9.70
2022-09-27T10:45:37.042Z,9.60
2022-09-27T10:48:34.547Z,9.70
2022-09-27T10:51:32.278Z,9.60
2022-09-27T10:54:39.501Z,9.90
2022-09-27T10:57:36.289Z,10.00
2022-09-27T11:00:36.850Z,9.90
2022-09-27T11:03:49.352Z,9.80
2022-09-27T11:06:46.244Z,9.80
2022-09-27T11:10:03.650Z,9.80
2022-09-27T11:13:20.647Z,9.80
2022-09-27T11:16:46.506Z,9.60
2022-09-27T11:20:04.734Z,9.80
2022-09-27T11:23:38.339Z,9.80
2022-09-27T11:27:07.465Z,9.80
2022-09-27T11:30:18.204Z,9.90
2022-09-27T11:33:45.947Z,9.90
2022-09-27T11:37:27.142Z,9.90
2022-09-27T11:41:05.467Z,9.90
2022-09-27T11:44:09.608Z,10.20
2022-09-27T11:47:51.405Z,10.60
2022-09-27T11:51:23.146Z,10.60
2022-09-27T11:54:54.639Z,10.60
2022-09-27T11:58:04.678Z,10.40
2022-09-27T12:01:46.182Z,10.40
2022-09-27T12:05:11.380Z,10.20
2022-09-27T12:08:32.703Z,10.10
2022-09-27T12:11:30.826Z,10.10
2022-09-27T12:14:47.848Z,9.90
2022-09-27T12:17:50.037Z,9.90
2022-09-27T12:20:47.172Z,10.00
2022-09-27T12:23:59.839Z,9.90
2022-09-27T12:27:09.783Z,10.00
2022-09-27T12:30:07.205Z,10.10
2022-09-27T12:33:38.536Z,10.30
2022-09-27T12:36:43.808Z,10.50
2022-09-27T12:39:54.363Z,10.90
2022-09-27T12:42:54.890Z,11.00
2022-09-27T12:46:00.774Z,11.00
2022-09-27T12:49:29.255Z,11.10
2022-09-27T12:52:32.228Z,11.00
2022-09-27T12:56:00.470Z,10.70
2022-09-27T12:59:36.626Z,10.80
2022-09-27T13:03:26.026Z,11.00
2022-09-27T13:06:52.345Z,11.20
2022-09-27T13:10:35.612Z,11.10
2022-09-27T13:13:36.765Z,11.10
2022-09-27T13:16:44.667Z,10.90
2022-09-27T13:19:45.585Z,11.00
2022-09-27T13:22:43.065Z,11.10
2022-09-27T13:26:03.746Z,11.10
2022-09-27T13:29:03.393Z,11.10
2022-09-27T13:32:00.065Z,11.10
2022-09-27T13:35:26.517Z,11.10
2022-09-27T13:38:24.830Z,11.00
2022-09-27T13:41:21.810Z,11.10
2022-09-27T13:45:14.950Z,11.00
2022-09-27T13:48:25.466Z,11.00
2022-09-27T13:51:56.699Z,10.90
2022-09-27T13:54:57.600Z,10.70
2022-09-27T13:58:03.477Z,10.70
2022-09-27T14:01:24.148Z,10.70
2022-09-27T14:04:37.142Z,10.60
2022-09-27T14:07:43.628Z,10.60
2022-09-27T14:10:43.782Z,10.40
2022-09-27T14:13:43.469Z,10.40
2022-09-27T14:16:46.277Z,10.60
2022-09-27T14:19:45.425Z,10.70
2022-09-27T14:22:44.206Z,10.60
2022-09-27T14:25:47.467Z,10.70
2022-09-27T14:28:44.236Z,10.70
2022-09-27T14:31:41.261Z,10.70
2022-09-27T14:34:39.390Z,10.80
2022-09-27T14:37:36.367Z,10.80
2022-09-27T14:40:54.307Z,10.80
2022-09-27T14:43:51.261Z,10.90
2022-09-27T14:46:48.377Z,10.80
2022-09-27T14:50:05.608Z,10.70
2022-09-27T14:53:05.061Z,10.50
2022-09-27T14:56:03.354Z,10.60
2022-09-27T14:59:23.185Z,10.60
2022-09-27T15:02:24.445Z,10.60
2022-09-27T15:05:25.718Z,10.50
2022-09-27T15:08:35.925Z,10.40
2022-09-27T15:11:34.672Z,10.30
2022-09-27T15:14:33.772Z,10.50
2022-09-27T15:17:43.719Z,10.30
2022-09-27T15:20:54.026Z,10.20
2022-09-27T15:23:51.097Z,10.10
2022-09-27T15:26:51.077Z,10.00
2022-09-27T15:29:56.386Z,10.00
2022-09-27T15:32:56.126Z,9.90
2022-09-27T15:36:03.490Z,9.90
2022-09-27T15:39:13.941Z,10.10
2022-09-27T15:42:14.526Z,10.00
2022-09-27T15:45:36.418Z,9.90
2022-09-27T15:48:37.417Z,9.80
2022-09-27T15:51:42.239Z,9.80
2022-09-27T15:54:39.446Z,9.60
2022-09-27T15:57:36.267Z,9.60
2022-09-27T16:00:33.166Z,9.60
2022-09-27T16:03:30.161Z,9.70
2022-09-27T16:06:28.995Z,9.50
2022-09-27T16:09:25.785Z,9.70
2022-09-27T16:12:22.906Z,9.70
2022-09-27T16:15:19.711Z,9.60
2022-09-27T16:18:16.594Z,9.60
2022-09-27T16:21:13.875Z,9.40
2022-09-27T16:24:11.538Z,9.50
2022-09-27T16:27:08.390Z,9.50
2022-09-27T16:30:06.018Z,9.50
2022-09-27T16:33:03.812Z,9.60
2022-09-27T16:36:04.773Z,9.50
2022-09-27T16:39:04.886Z,9.30
2022-09-27T16:42:05.853Z,9.10
2022-09-27T16:45:09.527Z,9.20
2022-09-27T16:48:07.914Z,9.10
2022-09-27T16:51:26.629Z,9.10
2022-09-27T16:54:25.336Z,9.10
2022-09-27T16:57:22.112Z,9.10
2022-09-27T17:00:19.113Z,9.00
2022-09-27T17:03:15.946Z,9.00
2022-09-27T17:06:12.758Z,9.10
2022-09-27T17:09:11.955Z,9.10
2022-09-27T17:12:11.960Z,9.20
2022-09-27T17:15:09.240Z,9.10
2022-09-27T17:18:06.045Z,9.00
2022-09-27T17:21:04.517Z,9.10
2022-09-27T17:24:01.493Z,9.00
2022-09-27T17:26:58.293Z,8.90
2022-09-27T17:29:55.858Z,8.90
2022-09-27T17:32:52.629Z,8.90
2022-09-27T17:36:00.137Z,8.80
2022-09-27T17:38:59.477Z,8.70
2022-09-27T17:41:56.272Z,8.70
2022-09-27T17:44:53.119Z,8.70
2022-09-27T17:48:13.686Z,8.60
2022-09-27T17:51:13.649Z,8.50
2022-09-27T17:54:11.141Z,8.50
2022-09-27T17:57:08.790Z,8.50
2022-09-27T18:00:07.309Z,8.40
2022-09-27T18:03:04.161Z,8.40
2022-09-27T18:06:06.645Z,8.40
2022-09-27T18:09:03.566Z,8.40
2022-09-27T18:12:00.731Z,8.30
2022-09-27T18:14:58.869Z,8.20
2022-09-27T18:17:58.353Z,8.20
2022-09-27T18:21:01.034Z,8.30
2022-09-27T18:24:02.936Z,8.40
2022-09-27T18:27:00.796Z,8.40
2022-09-27T18:29:59.934Z,8.40
2022-09-27T18:32:56.742Z,8.20
2022-09-27T18:35:53.514Z,8.20
2022-09-27T18:39:02.432Z,8.00
2022-09-27T18:41:59.306Z,8.10
2022-09-27T18:44:56.077Z,8.20
2022-09-27T18:47:52.914Z,8.10
2022-09-27T18:50:49.700Z,8.00
2022-09-27T18:53:47.881Z,8.00
2022-09-27T18:56:45.370Z,8.20
2022-09-27T18:59:42.156Z,8.10
2022-09-27T19:02:39.001Z,8.10
2022-09-27T19:05:35.764Z,8.10
2022-09-27T19:08:33.247Z,7.90
2022-09-27T19:11:30.166Z,8.00
2022-09-27T19:14:27.770Z,8.00
2022-09-27T19:17:24.553Z,8.00
2022-09-27T19:20:21.928Z,8.00
2022-09-27T19:23:23.439Z,8.20
2022-09-27T19:26:23.759Z,8.30
2022-09-27T19:29:20.652Z,8.30
2022-09-27T19:32:17.435Z,8.20
2022-09-27T19:35:14.563Z,8.10
2022-09-27T19:38:11.349Z,7.90
2022-09-27T19:41:11.241Z,7.90
2022-09-27T19:44:08.118Z,7.90
2022-09-27T19:47:05.066Z,8.00
2022-09-27T19:50:01.998Z,7.90
2022-09-27T19:52:58.799Z,8.00
2022-09-27T19:55:59.910Z,7.90
2022-09-27T19:58:56.682Z,7.90
2022-09-27T20:01:54.109Z,7.90
2022-09-27T20:04:51.312Z,7.90
2022-09-27T20:07:48.777Z,7.90
2022-09-27T20:10:54.667Z,8.00
2022-09-27T20:13:54.538Z,7.90
2022-09-27T20:16:51.335Z,7.90
2022-09-27T20:19:48.120Z,7.90
2022-09-27T20:22:45.329Z,8.00
2022-09-27T20:25:43.302Z,7.90
2022-09-27T20:28:46.182Z,7.90
2022-09-27T20:31:57.014Z,7.80
2022-09-27T20:34:59.825Z,7.90
2022-09-27T20:37:56.605Z,7.80
2022-09-27T20:40:57.855Z,7.90
2022-09-27T20:43:57.830Z,7.80
2022-09-27T20:46:54.692Z,7.80
2022-09-27T20:49:51.511Z,7.80
2022-09-27T20:52:48.367Z,7.80
2022-09-27T20:55:45.150Z,7.90
2022-09-27T20:58:41.962Z,7.80
2022-09-27T21:01:44.897Z,7.70
2022-09-27T21:04:41.766Z,7.70
2022-09-27T21:07:38.555Z,7.70
2022-09-27T21:10:35.365Z,7.60
2022-09-27T21:13:32.378Z,7.70
2022-09-27T21:16:34.575Z,7.70
2022-09-27T21:19:31.497Z,7.70
2022-09-27T21:22:28.270Z,7.60
2022-09-27T21:25:25.155Z,7.70
2022-09-27T21:28:21.943Z,7.60
2022-09-27T21:31:23.150Z,7.70
2022-09-27T21:34:20.162Z,7.70
2022-09-27T21:37:16.949Z,7.70
2022-09-27T21:40:13.778Z,7.70
2022-09-27T21:43:11.014Z,7.50
2022-09-27T21:46:25.895Z,7.50
2022-09-27T21:49:22.759Z,7.40
2022-09-27T21:52:19.555Z,7.40
2022-09-27T21:55:16.409Z,7.40
2022-09-27T21:58:13.824Z,7.50
2022-09-27T22:01:21.744Z,7.50
2022-09-27T22:04:18.901Z,7.50
2022-09-27T22:07:16.076Z,7.50
2022-09-27T22:10:15.441Z,7.60
2022-09-27T22:13:12.832Z,7.60
2022-09-27T22:16:14.094Z,7.60
2022-09-27T22:19:13.088Z,7.60
2022-09-27T22:22:09.914Z,7.70
2022-09-27T22:25:06.976Z,7.70
2022-09-27T22:28:04.395Z,7.70
2022-09-27T22:31:05.033Z,7.60
2022-09-27T22:34:05.265Z,7.60
2022-09-27T22:37:02.104Z,7.60
2022-09-27T22:39:58.900Z,7.60
2022-09-27T22:42:55.726Z,7.60
2022-09-27T22:45:52.721Z,7.50
2022-09-27T22:48:49.927Z,7.50
2022-09-27T22:51:46.813Z,7.50
2022-09-27T22:54:43.597Z,7.50
2022-09-27T22:57:40.443Z,7.60
2022-09-27T23:00:38.659Z,7.60
2022-09-27T23:03:35.772Z,7.70
2022-09-27T23:06:33.289Z,7.60
2022-09-27T23:09:30.093Z,7.50
2022-09-27T23:12:26.884Z,7.60
2022-09-27T23:15:23.744Z,7.50
2022-09-27T23:18:20.538Z,7.60
2022-09-27T23:21:17.355Z,7.60
2022-09-27T23:24:14.645Z,7.60
2022-09-27T23:27:29.745Z,7.60
2022-09-27T23:30:28.921Z,7.60
2022-09-27T23:33:27.151Z,7.60
2022-09-27T23:36:26.900Z,7.60
2022-09-27T23:39:23.680Z,7.60
2022-09-27T23:42:20.546Z,7.50
2022-09-27T23:45:17.316Z,7.50
2022-09-27T23:48:14.152Z,7.50
2022-09-27T23:51:12.583Z,7.50
2022-09-27T23:54:09.376Z,7.50
2022-09-27T23:57:06.277Z,7.40
